Time;durP1;ratioP1;P1;durP2;ratioP2;P2;SDS_P1;SDS_P2;PMS_P1;PMS_P2;Temp;Humidity;BMP_temperature;BMP_pressure;BME280_temperature;BME280_humidity;BME280_pressure;Samples;Min_cycle;Max_cycle;Signal;HPM_P1;HPM_P2
2021/12/10 00:01:11;;;;;;;0.50;0.38;;;;;;;;;;4199766;28;20049;-43
2021/12/10 00:03:12;;;;;;;;;;;;;;;;;;4200221;28;20502;-40
2021/12/10 00:05:15;;;;;;;0.25;0.15;;;;;;;;;;4199414;28;19924;-43
2021/12/10 00:07:21;;;;;;;0.50;0.25;;;;;;;;;;4199454;28;20053;-42
2021/12/10 00:09:27;;;;;;;0.32;0.22;;;;;;;;;;4199213;28;20094;-41
2021/12/10 00:11:33;;;;;;;0.80;0.25;;;;;;;;;;4199433;28;20098;-41
2021/12/10 00:13:35;;;;;;;0.40;0.25;;;;;;;;;;4199116;28;20048;-42
2021/12/10 00:15:37;;;;;;;0.45;0.28;;;;;;;;;;4198047;28;20078;-38
2021/12/10 00:17:38;;;;;;;1.13;0.40;;;;;;;;;;4199190;28;20044;-40
2021/12/10 00:19:47;;;;;;;0.40;0.30;;;;;;;;;;4199546;28;20083;-40
2021/12/10 00:21:49;;;;;;;0.55;0.40;;;;;;;;;;4199036;28;20507;-41
2021/12/10 00:23:51;;;;;;;0.40;0.28;;;;;;;;;;4198467;28;20048;-41
2021/12/10 00:25:53;;;;;;;0.52;0.20;;;;;;;;;;4199412;28;20044;-41
2021/12/10 00:27:54;;;;;;;0.88;0.40;;;;;;;;;;4198897;28;20252;-41
2021/12/10 00:30:04;;;;;;;0.43;0.20;;;;;;;;;;4199056;28;20103;-42
2021/12/10 00:32:05;;;;;;;;;;;;;;;;;;4199349;28;20044;-41
2021/12/10 00:34:06;;;;;;;0.20;0.20;;;;;;;;;;4199175;28;19970;-42
2021/12/10 00:36:07;;;;;;;0.28;0.28;;;;;;;;;;4198852;28;20083;-39
2021/12/10 00:38:09;;;;;;;0.55;0.20;;;;;;;;;;4198409;28;20098;-41
2021/12/10 00:40:11;;;;;;;0.50;0.30;;;;;;;;;;4198913;28;20063;-43
2021/12/10 00:42:14;;;;;;;0.60;0.30;;;;;;;;;;4199157;28;20052;-41
2021/12/10 00:44:15;;;;;;;0.30;0.20;;;;;;;;;;4198645;28;20338;-42
2021/12/10 00:46:16;;;;;;;0.30;0.30;;;;;;;;;;4198824;28;20101;-42
2021/12/10 00:48:18;;;;;;;0.45;0.30;;;;;;;;;;4198607;28;20059;-42
2021/12/10 00:50:22;;;;;;;0.60;0.32;;;;;;;;;;4198649;28;20052;-43
2021/12/10 00:52:24;;;;;;;0.28;0.13;;;;;;;;;;4198901;28;20105;-41
2021/12/10 00:54:25;;;;;;;0.20;0.20;;;;;;;;;;4198465;28;20449;-42
2021/12/10 00:56:26;;;;;;;0.30;0.30;;;;;;;;;;4197288;28;20086;-42
2021/12/10 00:58:28;;;;;;;0.52;0.40;;;;;;;;;;4198423;28;20114;-42
2021/12/10 01:00:33;;;;;;;0.55;0.40;;;;;;;;;;4197216;28;20480;-42
2021/12/10 01:02:34;;;;;;;0.32;0.25;;;;;;;;;;4198808;28;20055;-41
2021/12/10 01:04:37;;;;;;;0.20;0.20;;;;;;;;;;4198390;28;20117;-41
2021/12/10 01:06:39;;;;;;;0.55;0.40;;;;;;;;;;4198476;28;20045;-42
2021/12/10 01:08:41;;;;;;;0.35;0.20;;;;;;;;;;4197941;28;20056;-42
2021/12/10 01:10:46;;;;;;;0.50;0.25;;;;;;;;;;4198462;28;20052;-42
2021/12/10 01:12:48;;;;;;;0.38;0.35;;;;;;;;;;4198445;28;20044;-44
2021/12/10 01:24:08;;;;;;;0.30;0.20;;;;;;;;;;4196175;28;20109;-43
2021/12/10 01:28:21;;;;;;;1.08;0.30;;;;;;;;;;4198021;28;20549;-40
2021/12/10 01:30:23;;;;;;;0.20;0.20;;;;;;;;;;4198016;28;20059;-41
2021/12/10 01:32:27;;;;;;;0.75;0.40;;;;;;;;;;4197964;28;20059;-40
2021/12/10 01:34:28;;;;;;;0.50;0.50;;;;;;;;;;4197828;28;20052;-41
2021/12/10 01:36:29;;;;;;;0.22;0.20;;;;;;;;;;4198062;28;20057;-41
2021/12/10 01:38:31;;;;;;;0.52;0.22;;;;;;;;;;4197385;28;20078;-39
2021/12/10 01:40:34;;;;;;;0.30;0.20;;;;;;;;;;4197938;28;20472;-42
2021/12/10 01:42:48;;;;;;;0.28;0.22;;;;;;;;;;4197684;28;20056;-41
2021/12/10 01:44:51;;;;;;;0.50;0.30;;;;;;;;;;4197622;28;20049;-41
2021/12/10 01:46:53;;;;;;;0.20;0.20;;;;;;;;;;4197877;28;20094;-42
2021/12/10 01:48:55;;;;;;;0.45;0.30;;;;;;;;;;4197993;28;20048;-42
2021/12/10 01:50:58;;;;;;;0.20;0.20;;;;;;;;;;4197694;28;20102;-42
2021/12/10 01:53:00;;;;;;;0.90;0.30;;;;;;;;;;4197198;28;20106;-42
2021/12/10 01:55:03;;;;;;;0.20;0.10;;;;;;;;;;4198002;28;20048;-41
2021/12/10 01:57:05;;;;;;;0.40;0.20;;;;;;;;;;4197941;28;20098;-40
2021/12/10 01:59:08;;;;;;;0.30;0.30;;;;;;;;;;4196343;28;20490;-42
2021/12/10 02:01:12;;;;;;;0.40;0.30;;;;;;;;;;4196400;28;20382;-41
2021/12/10 02:03:13;;;;;;;0.60;0.32;;;;;;;;;;4197579;28;20064;-42
2021/12/10 02:05:15;;;;;;;0.50;0.20;;;;;;;;;;4197530;28;21026;-42
2021/12/10 02:07:18;;;;;;;0.68;0.22;;;;;;;;;;4197890;28;20102;-42
2021/12/10 02:09:19;;;;;;;0.60;0.45;;;;;;;;;;4197320;28;20056;-41
2021/12/10 02:11:21;;;;;;;0.45;0.20;;;;;;;;;;4197559;28;20040;-40
2021/12/10 02:13:22;;;;;;;0.25;0.25;;;;;;;;;;4197414;28;20049;-43
2021/12/10 02:15:26;;;;;;;0.20;0.20;;;;;;;;;;4197808;28;20098;-42
2021/12/10 02:17:29;;;;;;;0.30;0.25;;;;;;;;;;4197699;28;20060;-40
2021/12/10 02:19:30;;;;;;;0.63;0.20;;;;;;;;;;4197520;28;20048;-40
2021/12/10 02:21:34;;;;;;;0.20;0.20;;;;;;;;;;4192645;28;20060;-41
2021/12/10 02:23:37;;;;;;;0.28;0.28;;;;;;;;;;4179415;28;20122;-41
2021/12/10 02:25:38;;;;;;;0.32;0.20;;;;;;;;;;4180750;28;20096;-39
2021/12/10 02:27:39;;;;;;;0.20;0.20;;;;;;;;;;4181050;28;20049;-40
2021/12/10 02:29:41;;;;;;;0.50;0.25;;;;;;;;;;4180936;28;20507;-42
2021/12/10 02:31:42;;;;;;;0.52;0.28;;;;;;;;;;4180716;28;20049;-38
2021/12/10 02:33:43;;;;;;;0.28;0.15;;;;;;;;;;4180534;28;20048;-41
2021/12/10 02:35:44;;;;;;;0.25;0.20;;;;;;;;;;4196058;28;20554;-39
2021/12/10 02:37:46;;;;;;;0.30;0.30;;;;;;;;;;4180405;28;20084;-41
2021/12/10 02:39:47;;;;;;;0.52;0.40;;;;;;;;;;4180570;28;20053;-41
2021/12/10 02:41:48;;;;;;;0.30;0.20;;;;;;;;;;4180545;28;20045;-42
2021/12/10 02:43:50;;;;;;;0.30;0.20;;;;;;;;;;4180587;28;20371;-41
2021/12/10 02:45:54;;;;;;;0.40;0.20;;;;;;;;;;4180665;28;20478;-41
2021/12/10 02:47:56;;;;;;;0.30;0.22;;;;;;;;;;4180492;28;20045;-41
2021/12/10 02:49:57;;;;;;;1.02;0.30;;;;;;;;;;4180529;28;20045;-42
2021/12/10 02:51:58;;;;;;;0.30;0.30;;;;;;;;;;4180069;28;20114;-41
2021/12/10 02:54:00;;;;;;;0.22;0.20;;;;;;;;;;4180615;28;20056;-41
2021/12/10 02:56:01;;;;;;;0.10;0.10;;;;;;;;;;4183720;28;20055;-40
2021/12/10 02:58:06;;;;;;;0.10;0.10;;;;;;;;;;4184089;28;20053;-43
2021/12/10 03:00:09;;;;;;;0.30;0.20;;;;;;;;;;4189164;28;20044;-42
2021/12/10 03:02:13;;;;;;;0.30;0.22;;;;;;;;;;4200396;28;20053;-40
2021/12/10 03:04:15;;;;;;;0.43;0.20;;;;;;;;;;4200638;28;20102;-42
2021/12/10 03:06:17;;;;;;;0.20;0.20;;;;;;;;;;4200333;28;20094;-42
2021/12/10 03:08:18;;;;;;;0.40;0.28;;;;;;;;;;4199802;28;20044;-41
2021/12/10 03:10:24;;;;;;;0.30;0.20;;;;;;;;;;4200304;28;20049;-41
2021/12/10 03:12:26;;;;;;;0.30;0.10;;;;;;;;;;4200111;28;20537;-41
2021/12/10 03:14:28;;;;;;;0.17;0.17;;;;;;;;;;4200264;28;20102;-42
2021/12/10 03:16:29;;;;;;;0.35;0.30;;;;;;;;;;4200152;28;20048;-41
2021/12/10 03:18:31;;;;;;;0.30;0.20;;;;;;;;;;4200126;28;20132;-42
2021/12/10 03:20:32;;;;;;;0.60;0.22;;;;;;;;;;4200105;28;20052;-41
2021/12/10 03:22:33;;;;;;;0.22;0.20;;;;;;;;;;4199541;28;20056;-41
2021/12/10 03:24:35;;;;;;;0.20;0.10;;;;;;;;;;4199896;28;20048;-42
2021/12/10 03:26:37;;;;;;;0.50;0.30;;;;;;;;;;4198832;28;20049;-41
2021/12/10 03:28:40;;;;;;;0.20;0.15;;;;;;;;;;4200232;28;20041;-42
2021/12/10 03:30:42;;;;;;;0.35;0.20;;;;;;;;;;4200144;28;20090;-42
2021/12/10 03:32:44;;;;;;;0.20;0.20;;;;;;;;;;4199814;28;20542;-40
2021/12/10 03:34:45;;;;;;;0.28;0.20;;;;;;;;;;4200075;28;20102;-41
2021/12/10 03:36:49;;;;;;;0.20;0.20;;;;;;;;;;4198379;28;20577;-43
2021/12/10 03:38:50;;;;;;;0.35;0.30;;;;;;;;;;4199773;28;20052;-42
2021/12/10 03:40:52;;;;;;;0.30;0.20;;;;;;;;;;4200178;28;20053;-41
2021/12/10 03:42:58;;;;;;;0.20;0.20;;;;;;;;;;4199721;28;20057;-42
2021/12/10 03:44:59;;;;;;;0.20;0.20;;;;;;;;;;4182468;28;20111;-41
2021/12/10 03:47:01;;;;;;;0.43;0.25;;;;;;;;;;4183139;28;20106;-41
2021/12/10 03:49:03;;;;;;;0.20;0.20;;;;;;;;;;4183198;28;20041;-41
2021/12/10 03:51:05;;;;;;;0.20;0.20;;;;;;;;;;4183135;28;20045;-42
2021/12/10 03:53:06;;;;;;;0.45;0.30;;;;;;;;;;4182616;28;20048;-42
2021/12/10 03:55:08;;;;;;;0.38;0.30;;;;;;;;;;4183081;28;20485;-41
2021/12/10 03:57:09;;;;;;;0.30;0.15;;;;;;;;;;4182945;28;20401;-42
2021/12/10 03:59:11;;;;;;;0.20;0.20;;;;;;;;;;4182970;28;20048;-41
2021/12/10 04:01:14;;;;;;;0.50;0.22;;;;;;;;;;4182860;28;20064;-42
2021/12/10 04:03:17;;;;;;;0.20;0.20;;;;;;;;;;4182798;28;20056;-42
2021/12/10 04:05:18;;;;;;;0.20;0.20;;;;;;;;;;4182790;28;20053;-40
2021/12/10 04:07:21;;;;;;;0.17;0.17;;;;;;;;;;4181724;28;20053;-40
2021/12/10 04:09:23;;;;;;;0.10;0.10;;;;;;;;;;4183044;28;20048;-41
2021/12/10 04:11:25;;;;;;;0.20;0.20;;;;;;;;;;4182723;28;20382;-39
2021/12/10 04:13:27;;;;;;;0.20;0.20;;;;;;;;;;4181446;28;20053;-42
2021/12/10 04:15:28;;;;;;;0.20;0.13;;;;;;;;;;4182879;28;20095;-42
2021/12/10 04:17:29;;;;;;;0.30;0.30;;;;;;;;;;4182581;28;20102;-42
2021/12/10 04:19:31;;;;;;;0.20;0.20;;;;;;;;;;4182623;28;20049;-40
2021/12/10 04:21:39;;;;;;;0.10;0.10;;;;;;;;;;4181337;28;20061;-42
2021/12/10 04:23:43;;;;;;;0.20;0.20;;;;;;;;;;4182521;28;20053;-43
2021/12/10 04:25:44;;;;;;;0.50;0.30;;;;;;;;;;4182809;28;20048;-40
2021/12/10 04:27:47;;;;;;;0.20;0.20;;;;;;;;;;4182324;28;20554;-41
2021/12/10 04:29:52;;;;;;;0.28;0.28;;;;;;;;;;4197764;28;20322;-40
2021/12/10 04:31:54;;;;;;;0.10;0.10;;;;;;;;;;4191697;28;20048;-42
2021/12/10 04:33:55;;;;;;;0.10;0.10;;;;;;;;;;4199093;28;20098;-42
2021/12/10 04:35:59;;;;;;;0.22;0.10;;;;;;;;;;4198987;28;20053;-41
2021/12/10 04:38:00;;;;;;;0.30;0.30;;;;;;;;;;4198369;28;20449;-43
2021/12/10 04:40:03;;;;;;;0.30;0.20;;;;;;;;;;4198894;28;20052;-42
2021/12/10 04:42:05;;;;;;;0.20;0.20;;;;;;;;;;4197557;28;20079;-41
2021/12/10 04:44:07;;;;;;;0.10;0.10;;;;;;;;;;4198553;28;20048;-42
2021/12/10 04:46:08;;;;;;;0.15;0.10;;;;;;;;;;4199119;28;20098;-43
2021/12/10 04:48:09;;;;;;;0.25;0.13;;;;;;;;;;4198928;28;20456;-41
2021/12/10 04:50:10;;;;;;;0.20;0.20;;;;;;;;;;4198777;28;20404;-43
2021/12/10 04:52:11;;;;;;;0.35;0.17;;;;;;;;;;4198222;28;20484;-42
2021/12/10 04:54:13;;;;;;;0.10;0.10;;;;;;;;;;4197343;28;20059;-41
2021/12/10 04:56:15;;;;;;;0.10;0.10;;;;;;;;;;4198881;28;20060;-43
2021/12/10 04:58:16;;;;;;;0.28;0.22;;;;;;;;;;4198656;28;20052;-42
2021/12/10 05:00:20;;;;;;;0.30;0.20;;;;;;;;;;4198549;28;20048;-42
2021/12/10 05:02:21;;;;;;;0.20;0.20;;;;;;;;;;4198377;28;20098;-42
2021/12/10 05:04:24;;;;;;;0.20;0.13;;;;;;;;;;4198535;28;20087;-42
2021/12/10 05:06:25;;;;;;;0.20;0.13;;;;;;;;;;4198682;28;20048;-42
2021/12/10 05:08:26;;;;;;;0.20;0.20;;;;;;;;;;4198064;28;20052;-42
2021/12/10 05:10:27;;;;;;;0.30;0.20;;;;;;;;;;4198584;28;20098;-43
2021/12/10 05:12:28;;;;;;;0.38;0.20;;;;;;;;;;4198123;28;20053;-41
2021/12/10 05:14:30;;;;;;;0.25;0.20;;;;;;;;;;4198269;28;20048;-42
2021/12/10 05:16:31;;;;;;;0.73;0.20;;;;;;;;;;4198320;28;20510;-42
2021/12/10 05:18:37;;;;;;;0.20;0.20;;;;;;;;;;4198131;28;20056;-43
2021/12/10 05:20:41;;;;;;;0.10;0.10;;;;;;;;;;4198138;28;20498;-42
2021/12/10 05:22:44;;;;;;;0.20;0.13;;;;;;;;;;4197782;28;20060;-41
2021/12/10 05:24:45;;;;;;;0.20;0.20;;;;;;;;;;4197988;28;20072;-40
2021/12/10 05:26:46;;;;;;;0.10;0.10;;;;;;;;;;4197912;28;20113;-39
2021/12/10 05:28:47;;;;;;;0.22;0.20;;;;;;;;;;4198086;28;20097;-42
2021/12/10 05:30:49;;;;;;;0.20;0.20;;;;;;;;;;4197932;28;20439;-42
2021/12/10 05:32:51;;;;;;;0.20;0.20;;;;;;;;;;4198056;28;20052;-41
2021/12/10 05:34:54;;;;;;;0.38;0.20;;;;;;;;;;4198037;28;20052;-42
2021/12/10 05:36:57;;;;;;;0.50;0.30;;;;;;;;;;4197334;28;20096;-42
2021/12/10 05:38:58;;;;;;;1.08;0.30;;;;;;;;;;4197773;28;20125;-41
2021/12/10 05:41:00;;;;;;;0.30;0.20;;;;;;;;;;4196769;28;20048;-42
2021/12/10 05:43:01;;;;;;;0.20;0.20;;;;;;;;;;4197722;28;20049;-40
2021/12/10 05:45:02;;;;;;;0.30;0.20;;;;;;;;;;4197636;28;20494;-41
2021/12/10 05:47:04;;;;;;;0.25;0.20;;;;;;;;;;4197700;28;20122;-41
2021/12/10 05:49:05;;;;;;;0.40;0.30;;;;;;;;;;4197677;28;20055;-41
2021/12/10 05:51:06;;;;;;;0.77;0.30;;;;;;;;;;4197607;28;20044;-42
2021/12/10 05:53:07;;;;;;;0.20;0.20;;;;;;;;;;4197162;28;20105;-42
2021/12/10 05:55:09;;;;;;;0.30;0.28;;;;;;;;;;4197713;28;20480;-42
2021/12/10 05:57:10;;;;;;;0.30;0.30;;;;;;;;;;4197448;28;20380;-40
2021/12/10 05:59:11;;;;;;;0.20;0.20;;;;;;;;;;4197548;28;20052;-41
2021/12/10 06:01:14;;;;;;;0.20;0.20;;;;;;;;;;4197215;28;20135;-41
2021/12/10 06:03:16;;;;;;;0.30;0.30;;;;;;;;;;4196048;28;20059;-42
2021/12/10 06:05:17;;;;;;;0.65;0.30;;;;;;;;;;4197434;28;20400;-42
2021/12/10 06:07:18;;;;;;;0.40;0.30;;;;;;;;;;4197030;28;20048;-43
2021/12/10 06:09:19;;;;;;;0.20;0.20;;;;;;;;;;4197420;28;20522;-41
2021/12/10 06:11:21;;;;;;;0.40;0.30;;;;;;;;;;4197660;28;20048;-41
2021/12/10 06:13:22;;;;;;;0.60;0.50;;;;;;;;;;4197610;28;20048;-44
2021/12/10 06:15:25;;;;;;;0.30;0.30;;;;;;;;;;4197324;28;20052;-42
2021/12/10 06:17:26;;;;;;;0.57;0.22;;;;;;;;;;4197447;28;20060;-42
2021/12/10 06:19:27;;;;;;;0.38;0.30;;;;;;;;;;4197329;28;20052;-42
2021/12/10 06:21:29;;;;;;;0.30;0.30;;;;;;;;;;4196924;28;20610;-41
2021/12/10 06:23:30;;;;;;;0.47;0.20;;;;;;;;;;4196653;28;20389;-41
2021/12/10 06:25:31;;;;;;;0.30;0.30;;;;;;;;;;4197321;28;20048;-42
2021/12/10 06:27:33;;;;;;;0.35;0.35;;;;;;;;;;4197246;28;20057;-42
2021/12/10 06:29:36;;;;;;;0.20;0.20;;;;;;;;;;4196784;28;20373;-43
2021/12/10 06:31:37;;;;;;;0.35;0.30;;;;;;;;;;4196091;28;20102;-41
2021/12/10 06:33:38;;;;;;;0.45;0.30;;;;;;;;;;4197312;28;20051;-42
2021/12/10 06:35:40;;;;;;;0.30;0.30;;;;;;;;;;4197151;28;20114;-42
2021/12/10 06:37:43;;;;;;;0.45;0.30;;;;;;;;;;4196606;28;20052;-41
2021/12/10 06:39:44;;;;;;;0.30;0.30;;;;;;;;;;4197160;28;20110;-42
2021/12/10 06:41:46;;;;;;;0.40;0.32;;;;;;;;;;4196929;28;20389;-41
2021/12/10 06:43:47;;;;;;;0.32;0.30;;;;;;;;;;4195915;28;20531;-42
2021/12/10 06:45:51;;;;;;;0.20;0.20;;;;;;;;;;4196910;28;20067;-43
2021/12/10 06:47:55;;;;;;;0.68;0.50;;;;;;;;;;4196818;28;20056;-42
2021/12/10 06:49:57;;;;;;;0.38;0.30;;;;;;;;;;4197042;28;20059;-41
2021/12/10 06:52:00;;;;;;;0.28;0.22;;;;;;;;;;4196442;28;20382;-41
2021/12/10 06:54:01;;;;;;;0.40;0.30;;;;;;;;;;4196931;28;20048;-40
2021/12/10 06:56:04;;;;;;;0.40;0.40;;;;;;;;;;4196874;28;20106;-41
2021/12/10 06:58:06;;;;;;;0.63;0.47;;;;;;;;;;4196693;28;20140;-42
2021/12/10 07:00:09;;;;;;;0.50;0.30;;;;;;;;;;4196770;28;20094;-42
2021/12/10 07:02:13;;;;;;;0.50;0.40;;;;;;;;;;4196639;28;20052;-41
2021/12/10 07:04:14;;;;;;;0.28;0.28;;;;;;;;;;4196587;28;20449;-42
2021/12/10 07:06:16;;;;;;;0.57;0.40;;;;;;;;;;4196975;28;20102;-41
2021/12/10 07:08:18;;;;;;;0.50;0.50;;;;;;;;;;4196137;28;20041;-42
2021/12/10 07:10:20;;;;;;;0.52;0.52;;;;;;;;;;4196834;28;20439;-42
2021/12/10 07:12:21;;;;;;;0.80;0.60;;;;;;;;;;4196542;28;20094;-42
2021/12/10 07:14:22;;;;;;;0.63;0.40;;;;;;;;;;4196562;28;20443;-42
2021/12/10 07:16:24;;;;;;;0.20;0.20;;;;;;;;;;4196468;28;20056;-43
2021/12/10 07:18:25;;;;;;;0.60;0.40;;;;;;;;;;4195499;28;20129;-40
2021/12/10 07:20:26;;;;;;;0.60;0.50;;;;;;;;;;4196454;28;20447;-41
2021/12/10 07:22:27;;;;;;;0.40;0.38;;;;;;;;;;4194569;28;20056;-41
2021/12/10 07:24:28;;;;;;;0.28;0.28;;;;;;;;;;4196230;28;20537;-40
2021/12/10 07:26:30;;;;;;;1.10;0.50;;;;;;;;;;4196406;28;20499;-42
2021/12/10 07:28:31;;;;;;;0.50;0.40;;;;;;;;;;4196618;28;20052;-41
2021/12/10 07:30:33;;;;;;;0.60;0.50;;;;;;;;;;4194882;28;20426;-42
2021/12/10 07:32:39;;;;;;;1.08;0.57;;;;;;;;;;4187425;28;20040;-42
2021/12/10 07:34:40;;;;;;;0.65;0.40;;;;;;;;;;4180834;28;20754;-37
2021/12/10 07:36:42;;;;;;;0.38;0.38;;;;;;;;;;4188795;28;20078;-40
2021/12/10 07:38:43;;;;;;;0.60;0.40;;;;;;;;;;4192724;28;20057;-40
2021/12/10 07:40:44;;;;;;;0.63;0.60;;;;;;;;;;4193941;28;20063;-42
2021/12/10 07:42:45;;;;;;;0.50;0.40;;;;;;;;;;4197883;28;20052;-38
2021/12/10 07:44:46;;;;;;;0.60;0.60;;;;;;;;;;4187140;28;20075;-42
2021/12/10 07:46:50;;;;;;;0.73;0.50;;;;;;;;;;4195828;28;20405;-41
2021/12/10 07:48:52;;;;;;;1.65;0.60;;;;;;;;;;4193017;28;20057;-43
2021/12/10 07:50:57;;;;;;;0.50;0.45;;;;;;;;;;4199745;28;20450;-41
2021/12/10 07:52:58;;;;;;;0.57;0.50;;;;;;;;;;4203316;28;20086;-41
2021/12/10 07:55:00;;;;;;;0.80;0.60;;;;;;;;;;4200237;28;20119;-40
2021/12/10 07:57:01;;;;;;;0.77;0.50;;;;;;;;;;4201171;28;20060;-40
2021/12/10 07:59:03;;;;;;;0.70;0.55;;;;;;;;;;4191172;28;20057;-39
2021/12/10 08:01:06;;;;;;;1.40;0.47;;;;;;;;;;4196717;28;20049;-41
2021/12/10 08:03:07;;;;;;;0.70;0.35;;;;;;;;;;4196981;28;20048;-40
2021/12/10 08:05:09;;;;;;;0.93;0.50;;;;;;;;;;4198218;28;20052;-41
2021/12/10 08:07:12;;;;;;;0.50;0.40;;;;;;;;;;4195030;28;20056;-42
2021/12/10 08:09:13;;;;;;;0.70;0.40;;;;;;;;;;4199549;28;20051;-38
2021/12/10 08:11:15;;;;;;;0.93;0.65;;;;;;;;;;4204182;28;20036;-42
2021/12/10 08:13:17;;;;;;;0.63;0.40;;;;;;;;;;4199792;28;20048;-41
2021/12/10 08:15:18;;;;;;;2.70;0.65;;;;;;;;;;4196395;28;20488;-43
2021/12/10 08:17:19;;;;;;;0.50;0.50;;;;;;;;;;4194237;28;20094;-42
2021/12/10 08:19:20;;;;;;;0.93;0.57;;;;;;;;;;4196416;28;20579;-41
2021/12/10 08:21:22;;;;;;;0.50;0.40;;;;;;;;;;4196057;28;20454;-42
2021/12/10 08:23:24;;;;;;;1.20;0.60;;;;;;;;;;4194933;28;20049;-41
2021/12/10 08:25:26;;;;;;;0.50;0.50;;;;;;;;;;4191695;28;20465;-40
2021/12/10 08:27:27;;;;;;;2.22;0.50;;;;;;;;;;4199792;28;20060;-41
2021/12/10 08:29:28;;;;;;;0.40;0.30;;;;;;;;;;4196088;28;20392;-41
2021/12/10 08:31:29;;;;;;;1.33;0.50;;;;;;;;;;4200283;28;20489;-39
2021/12/10 08:33:31;;;;;;;1.52;0.40;;;;;;;;;;4193571;28;20044;-41
2021/12/10 08:35:32;;;;;;;1.92;0.93;;;;;;;;;;4194278;28;20053;-41
2021/12/10 08:37:34;;;;;;;0.95;0.55;;;;;;;;;;4198618;28;20484;-39
2021/12/10 08:39:35;;;;;;;2.47;0.57;;;;;;;;;;4198308;28;20122;-39
2021/12/10 08:41:37;;;;;;;1.10;0.47;;;;;;;;;;4198696;28;20082;-42
2021/12/10 08:43:39;;;;;;;0.70;0.50;;;;;;;;;;4197650;28;20044;-42
2021/12/10 08:45:41;;;;;;;0.40;0.40;;;;;;;;;;4196739;28;20044;-41
2021/12/10 08:47:42;;;;;;;0.50;0.30;;;;;;;;;;4191993;28;20059;-40
2021/12/10 08:49:43;;;;;;;0.57;0.50;;;;;;;;;;4198467;28;20053;-42
2021/12/10 08:51:45;;;;;;;0.57;0.57;;;;;;;;;;4198229;28;20090;-42
2021/12/10 08:53:48;;;;;;;0.88;0.40;;;;;;;;;;4194347;28;20424;-42
2021/12/10 08:55:51;;;;;;;0.75;0.40;;;;;;;;;;4197119;28;20074;-42
2021/12/10 08:57:52;;;;;;;0.90;0.60;;;;;;;;;;4198237;28;20056;-42
2021/12/10 08:59:54;;;;;;;0.50;0.40;;;;;;;;;;4200389;28;20434;-42
2021/12/10 09:01:57;;;;;;;0.30;0.30;;;;;;;;;;4197406;28;20055;-41
2021/12/10 09:03:59;;;;;;;0.50;0.30;;;;;;;;;;4200410;28;20048;-41
2021/12/10 09:06:01;;;;;;;0.52;0.40;;;;;;;;;;4193656;28;20103;-42
2021/12/10 09:08:02;;;;;;;0.43;0.40;;;;;;;;;;4199585;28;20049;-41
2021/12/10 09:10:07;;;;;;;0.60;0.40;;;;;;;;;;4198287;28;20056;-44
2021/12/10 09:12:12;;;;;;;0.80;0.43;;;;;;;;;;4198933;28;20040;-43
2021/12/10 09:14:14;;;;;;;0.55;0.35;;;;;;;;;;4194267;28;20045;-43
2021/12/10 09:16:22;;;;;;;1.95;0.57;;;;;;;;;;4197518;28;20060;-41
2021/12/10 09:18:23;;;;;;;0.80;0.30;;;;;;;;;;4190213;28;20307;-42
2021/12/10 09:20:35;;;;;;;0.47;0.30;;;;;;;;;;4192438;28;20057;-42
2021/12/10 09:22:36;;;;;;;0.32;0.30;;;;;;;;;;4191732;28;20102;-43
2021/12/10 09:24:38;;;;;;;0.40;0.30;;;;;;;;;;4212133;28;20087;-42
2021/12/10 09:26:42;;;;;;;1.00;0.47;;;;;;;;;;4195708;28;20056;-39
2021/12/10 09:28:45;;;;;;;1.58;0.35;;;;;;;;;;4195567;28;20052;-40
2021/12/10 09:30:47;;;;;;;0.50;0.45;;;;;;;;;;4197020;28;20443;-42
2021/12/10 09:32:48;;;;;;;2.88;0.47;;;;;;;;;;4207501;28;20044;-43
2021/12/10 09:34:50;;;;;;;0.63;0.40;;;;;;;;;;4198611;28;20105;-41
2021/12/10 09:36:52;;;;;;;1.65;0.50;;;;;;;;;;4199802;28;20048;-42
2021/12/10 09:38:53;;;;;;;0.60;0.35;;;;;;;;;;4200964;28;20094;-41
2021/12/10 09:40:56;;;;;;;0.30;0.30;;;;;;;;;;4200525;28;20048;-42
2021/12/10 09:42:57;;;;;;;0.40;0.40;;;;;;;;;;4196338;28;20097;-41
2021/12/10 09:44:58;;;;;;;1.95;0.40;;;;;;;;;;4202325;28;20056;-42
2021/12/10 09:46:59;;;;;;;0.65;0.40;;;;;;;;;;4200821;28;20044;-41
2021/12/10 09:49:01;;;;;;;1.30;0.57;;;;;;;;;;4197084;28;20041;-40
2021/12/10 09:51:01;;;;;;;0.57;0.40;;;;;;;;;;4199798;28;20549;-42
2021/12/10 09:53:04;;;;;;;1.15;0.50;;;;;;;;;;4199922;28;20113;-41
2021/12/10 09:55:06;;;;;;;0.60;0.60;;;;;;;;;;4195850;28;20379;-44
2021/12/10 09:57:12;;;;;;;0.70;0.35;;;;;;;;;;4195120;28;20055;-42
2021/12/10 09:59:14;;;;;;;0.93;0.43;;;;;;;;;;4193771;28;20048;-42
2021/12/10 10:01:21;;;;;;;2.28;0.47;;;;;;;;;;4194862;28;20102;-42
2021/12/10 10:03:24;;;;;;;0.30;0.30;;;;;;;;;;4197749;28;20101;-42
2021/12/10 10:05:27;;;;;;;1.05;0.47;;;;;;;;;;4187070;28;20087;-42
2021/12/10 10:07:28;;;;;;;0.40;0.40;;;;;;;;;;4195610;28;20056;-42
2021/12/10 10:09:30;;;;;;;0.50;0.30;;;;;;;;;;4203529;28;20095;-42
2021/12/10 10:11:33;;;;;;;1.17;0.55;;;;;;;;;;4204493;28;20040;-42
2021/12/10 10:13:35;;;;;;;0.52;0.40;;;;;;;;;;4195558;28;20051;-43
2021/12/10 10:15:38;;;;;;;0.82;0.30;;;;;;;;;;4196128;28;20078;-43
2021/12/10 10:17:40;;;;;;;1.10;0.40;;;;;;;;;;4195193;28;20056;-43
2021/12/10 10:19:41;;;;;;;0.45;0.40;;;;;;;;;;4193684;28;20052;-42
2021/12/10 10:21:44;;;;;;;0.57;0.45;;;;;;;;;;4195381;28;20470;-42
2021/12/10 10:23:47;;;;;;;0.30;0.30;;;;;;;;;;4196526;28;20059;-43
2021/12/10 10:25:49;;;;;;;1.35;0.45;;;;;;;;;;4200500;28;20049;-43
2021/12/10 10:27:53;;;;;;;1.45;0.50;;;;;;;;;;4196164;28;20048;-42
2021/12/10 10:30:14;;;;;;;0.80;0.50;;;;;;;;;;4195283;28;20118;-42
2021/12/10 10:32:18;;;;;;;0.75;0.30;;;;;;;;;;4195164;28;20094;-41
2021/12/10 10:34:22;;;;;;;0.73;0.50;;;;;;;;;;4197804;28;20041;-41
2021/12/10 10:36:24;;;;;;;1.00;0.63;;;;;;;;;;4203328;28;20056;-42
2021/12/10 10:38:26;;;;;;;2.28;0.43;;;;;;;;;;4203679;28;20090;-43
2021/12/10 10:40:30;;;;;;;0.65;0.63;;;;;;;;;;4195919;28;20048;-42
2021/12/10 10:42:32;;;;;;;0.40;0.40;;;;;;;;;;4193232;28;20086;-42
2021/12/10 10:44:33;;;;;;;1.35;0.38;;;;;;;;;;4195310;28;20106;-43
2021/12/10 10:46:34;;;;;;;0.40;0.30;;;;;;;;;;4196320;28;20044;-43
2021/12/10 10:48:35;;;;;;;0.85;0.50;;;;;;;;;;4195998;28;20100;-43
2021/12/10 10:50:54;;;;;;;0.55;0.40;;;;;;;;;;4194475;28;20053;-42
2021/12/10 10:52:57;;;;;;;1.08;0.38;;;;;;;;;;4194166;28;20049;-40
2021/12/10 10:55:10;;;;;;;0.45;0.20;;;;;;;;;;4177345;28;20049;-42
2021/12/10 10:57:14;;;;;;;0.77;0.40;;;;;;;;;;4190331;28;20048;-43
2021/12/10 10:59:18;;;;;;;0.63;0.45;;;;;;;;;;4189628;28;20109;-44
2021/12/10 11:01:26;;;;;;;0.73;0.40;;;;;;;;;;4197430;28;20499;-44
2021/12/10 11:03:36;;;;;;;0.77;0.50;;;;;;;;;;4193381;28;20462;-42
2021/12/10 11:05:51;;;;;;;0.45;0.32;;;;;;;;;;4189251;28;20036;-42
2021/12/10 11:07:53;;;;;;;0.60;0.45;;;;;;;;;;4187678;28;20049;-44
2021/12/10 11:09:58;;;;;;;0.45;0.28;;;;;;;;;;4191092;28;20136;-42
2021/12/10 11:12:01;;;;;;;1.17;0.22;;;;;;;;;;4191938;28;20041;-42
2021/12/10 11:14:11;;;;;;;0.20;0.20;;;;;;;;;;4196108;28;20044;-42
2021/12/10 11:16:14;;;;;;;1.95;0.20;;;;;;;;;;4193800;28;20063;-42
2021/12/10 11:18:15;;;;;;;0.63;0.40;;;;;;;;;;4196236;28;20108;-43
2021/12/10 11:20:26;;;;;;;0.20;0.20;;;;;;;;;;4195584;28;20094;-42
2021/12/10 11:22:28;;;;;;;2.13;0.50;;;;;;;;;;4195410;28;20190;-42
2021/12/10 11:24:34;;;;;;;1.17;0.43;;;;;;;;;;4194126;28;20055;-42
2021/12/10 11:26:43;;;;;;;2.78;0.40;;;;;;;;;;4192180;28;20086;-44
2021/12/10 11:28:44;;;;;;;0.50;0.40;;;;;;;;;;4197716;28;20090;-41
2021/12/10 11:30:47;;;;;;;0.60;0.30;;;;;;;;;;4191431;28;20083;-44
2021/12/10 11:32:50;;;;;;;0.30;0.30;;;;;;;;;;4186878;28;20049;-41
2021/12/10 11:35:03;;;;;;;0.50;0.40;;;;;;;;;;4194043;28;20449;-41
2021/12/10 11:37:04;;;;;;;0.52;0.50;;;;;;;;;;4195131;28;20048;-42
2021/12/10 11:39:06;;;;;;;1.50;0.30;;;;;;;;;;4187403;28;20052;-44
2021/12/10 11:41:14;;;;;;;0.40;0.40;;;;;;;;;;4195015;28;20113;-42
2021/12/10 11:45:43;;;;;;;0.65;0.30;;;;;;;;;;4195780;28;20044;-43
2021/12/10 11:47:52;;;;;;;0.40;0.30;;;;;;;;;;4196505;28;20098;-42
2021/12/10 11:49:53;;;;;;;0.20;0.20;;;;;;;;;;4203847;28;20052;-43
2021/12/10 11:52:00;;;;;;;0.13;0.10;;;;;;;;;;4195873;28;20045;-42
2021/12/10 11:54:03;;;;;;;0.30;0.30;;;;;;;;;;4203943;28;20052;-42
2021/12/10 11:56:05;;;;;;;0.47;0.28;;;;;;;;;;4190245;28;20061;-40
2021/12/10 11:58:13;;;;;;;0.77;0.22;;;;;;;;;;4194659;28;20076;-41
2021/12/10 12:00:17;;;;;;;1.95;0.20;;;;;;;;;;4187183;28;20103;-41
2021/12/10 12:02:19;;;;;;;0.20;0.20;;;;;;;;;;4192222;28;20049;-37
2021/12/10 12:04:23;;;;;;;0.52;0.30;;;;;;;;;;4195465;28;20040;-41
2021/12/10 12:06:24;;;;;;;0.50;0.30;;;;;;;;;;4200914;28;20048;-38
2021/12/10 12:08:25;;;;;;;0.15;0.15;;;;;;;;;;4196994;28;20037;-42
2021/12/10 12:10:31;;;;;;;0.32;0.20;;;;;;;;;;4197785;28;20514;-41
2021/12/10 12:12:39;;;;;;;1.30;0.30;;;;;;;;;;4192166;28;20110;-38
2021/12/10 12:14:47;;;;;;;0.22;0.20;;;;;;;;;;4192664;28;20052;-40
2021/12/10 12:16:48;;;;;;;2.05;0.40;;;;;;;;;;4199573;28;20485;-39
2021/12/10 12:18:52;;;;;;;0.77;0.30;;;;;;;;;;4194749;28;20064;-41
2021/12/10 12:20:55;;;;;;;0.30;0.20;;;;;;;;;;4191422;28;20049;-42
2021/12/10 12:25:29;;;;;;;0.63;0.30;;;;;;;;;;4193741;28;20114;-40
2021/12/10 12:27:30;;;;;;;0.30;0.30;;;;;;;;;;4196051;28;20056;-43
2021/12/10 12:29:39;;;;;;;1.08;0.30;;;;;;;;;;4199711;28;20166;-42
2021/12/10 12:31:42;;;;;;;0.40;0.40;;;;;;;;;;4194460;28;20055;-40